Time;durP1;ratioP1;P1;durP2;ratioP2;P2;SDS_P1;SDS_P2;PMS_P1;PMS_P2;Temp;Humidity;BMP_temperature;BMP_pressure;BME280_temperature;BME280_humidity;BME280_pressure;Samples;Min_cycle;Max_cycle;Signal;HPM_P1;HPM_P2
2023/03/20 00:02:26;;;;;;;19.50;11.30;;;9.90;99.90;;;;;;4990349;28;20264;-87
2023/03/20 00:04:53;;;;;;;22.93;11.03;;;9.90;99.90;;;;;;4986079;28;20217;-87
2023/03/20 00:07:20;;;;;;;20.90;11.07;;;9.90;99.90;;;;;;4982000;28;20202;-87
2023/03/20 00:09:48;;;;;;;20.23;10.47;;;9.80;99.90;;;;;;4993735;28;20197;-88
2023/03/20 00:12:25;;;;;;;21.70;11.53;;;9.80;99.90;;;;;;4993265;28;20202;-86
2023/03/20 00:14:52;;;;;;;17.20;9.73;;;9.80;99.90;;;;;;5011823;28;20673;-85
2023/03/20 00:17:19;;;;;;;18.20;9.50;;;9.80;99.90;;;;;;4992402;28;20242;-87
2023/03/20 00:19:46;;;;;;;17.20;9.30;;;9.80;99.90;;;;;;4989184;28;20204;-87
2023/03/20 00:22:13;;;;;;;18.10;10.57;;;9.80;99.90;;;;;;4993604;28;20219;-88
2023/03/20 00:24:40;;;;;;;20.77;9.57;;;9.80;99.90;;;;;;4996753;28;20237;-87
2023/03/20 00:27:12;;;;;;;19.13;9.40;;;9.80;99.90;;;;;;4988297;28;20349;-87
2023/03/20 00:29:39;;;;;;;17.03;9.40;;;9.70;99.90;;;;;;5000189;28;20242;-87
2023/03/20 00:32:13;;;;;;;18.87;9.67;;;9.70;99.90;;;;;;4994614;28;20206;-87
2023/03/20 00:34:42;;;;;;;17.53;8.80;;;9.70;99.90;;;;;;4990213;28;20231;-88
2023/03/20 00:37:11;;;;;;;19.77;9.60;;;9.60;99.90;;;;;;4999778;28;20266;-88
2023/03/20 00:39:38;;;;;;;23.70;11.07;;;9.70;99.90;;;;;;4999783;28;20206;-88
2023/03/20 00:42:18;;;;;;;18.43;9.47;;;9.60;99.90;;;;;;4989063;28;20272;-86
2023/03/20 00:44:53;;;;;;;19.73;9.53;;;9.60;99.90;;;;;;4986857;28;20297;-86
2023/03/20 00:47:23;;;;;;;17.67;10.10;;;9.70;99.90;;;;;;4984671;28;20210;-87
2023/03/20 00:49:53;;;;;;;19.93;9.90;;;9.60;99.90;;;;;;4993639;28;20199;-87
2023/03/20 00:52:21;;;;;;;15.57;8.77;;;9.60;99.90;;;;;;4998279;28;20272;-88
2023/03/20 00:54:47;;;;;;;24.03;10.43;;;9.60;99.90;;;;;;5000767;28;20191;-87
2023/03/20 00:57:21;;;;;;;20.93;10.33;;;9.60;99.90;;;;;;5015789;28;20336;-86
2023/03/20 01:00:03;;;;;;;19.73;8.43;;;9.60;99.90;;;;;;4990722;28;20261;-86
2023/03/20 01:02:32;;;;;;;20.20;9.37;;;9.60;99.90;;;;;;5003305;28;20597;-87
2023/03/20 01:04:59;;;;;;;21.87;9.10;;;9.60;99.90;;;;;;4988429;28;20244;-87
2023/03/20 01:07:26;;;;;;;17.60;9.17;;;9.60;99.90;;;;;;4998772;28;20207;-90
2023/03/20 01:09:55;;;;;;;21.73;10.87;;;9.70;99.90;;;;;;4993227;28;20236;-87
2023/03/20 01:12:22;;;;;;;21.83;10.43;;;9.70;99.90;;;;;;5001551;28;20207;-87
2023/03/20 01:14:55;;;;;;;29.50;11.03;;;9.70;99.90;;;;;;5013019;28;20212;-86
2023/03/20 01:17:23;;;;;;;19.17;9.60;;;9.60;99.90;;;;;;5000287;28;20693;-88
2023/03/20 01:19:52;;;;;;;26.30;10.90;;;9.70;99.90;;;;;;4997864;28;20664;-87
2023/03/20 01:22:19;;;;;;;21.10;10.70;;;9.60;99.90;;;;;;4997100;28;20270;-86
2023/03/20 01:24:49;;;;;;;25.23;10.93;;;9.60;99.90;;;;;;4991215;28;20210;-88
2023/03/20 01:27:18;;;;;;;27.93;12.20;;;9.60;99.90;;;;;;4996132;28;20200;-88
2023/03/20 01:29:47;;;;;;;25.70;10.93;;;9.60;99.90;;;;;;4999563;28;20207;-87
2023/03/20 01:32:18;;;;;;;22.23;11.33;;;9.60;99.90;;;;;;4992659;28;20225;-86
2023/03/20 01:34:46;;;;;;;25.57;11.93;;;9.60;99.90;;;;;;4989086;28;20219;-87
2023/03/20 01:37:17;;;;;;;25.00;13.33;;;9.60;99.90;;;;;;4993827;28;20274;-86
2023/03/20 01:39:44;;;;;;;29.00;14.20;;;9.60;99.90;;;;;;4991573;28;20214;-87
2023/03/20 01:42:15;;;;;;;30.30;14.70;;;9.60;99.90;;;;;;4996676;28;20227;-86
2023/03/20 01:44:42;;;;;;;31.00;15.77;;;9.60;99.90;;;;;;4999285;28;20694;-88
2023/03/20 01:47:22;;;;;;;28.30;14.70;;;9.60;99.90;;;;;;4986895;28;20237;-87
2023/03/20 01:50:17;;;;;;;30.00;15.20;;;9.50;99.90;;;;;;4996637;28;20603;-87
2023/03/20 01:52:45;;;;;;;33.37;17.80;;;9.50;99.90;;;;;;4985369;28;20571;-87
2023/03/20 01:55:15;;;;;;;29.43;16.27;;;9.50;99.90;;;;;;4987981;28;20211;-86
2023/03/20 01:57:42;;;;;;;35.07;16.00;;;9.50;99.90;;;;;;4984205;28;20227;-87
2023/03/20 02:00:15;;;;;;;37.53;18.47;;;9.50;99.90;;;;;;4998405;28;20208;-87
2023/03/20 02:02:45;;;;;;;33.43;16.87;;;9.50;99.90;;;;;;4999104;28;20311;-86
2023/03/20 02:05:15;;;;;;;30.73;16.17;;;9.50;99.90;;;;;;4989585;28;20244;-86
2023/03/20 02:07:49;;;;;;;32.47;17.63;;;9.60;99.90;;;;;;4994862;28;20199;-86
2023/03/20 02:10:18;;;;;;;31.70;17.87;;;9.50;99.90;;;;;;4995964;28;20279;-87
2023/03/20 02:12:46;;;;;;;34.63;18.27;;;9.50;99.90;;;;;;4996726;28;20831;-86
2023/03/20 02:15:14;;;;;;;29.70;16.67;;;9.60;99.90;;;;;;5001654;28;20281;-87
2023/03/20 02:17:43;;;;;;;32.73;16.83;;;9.50;99.90;;;;;;4992367;28;20230;-88
2023/03/20 02:20:47;;;;;;;30.77;15.60;;;9.50;99.90;;;;;;4984421;28;20300;-88
2023/03/20 02:23:27;;;;;;;32.17;16.10;;;9.50;99.90;;;;;;5000306;28;20209;-85
2023/03/20 02:26:36;;;;;;;24.97;14.33;;;9.40;99.90;;;;;;4988202;28;20243;-86
2023/03/20 02:29:44;;;;;;;28.73;15.17;;;9.40;99.90;;;;;;4988599;28;20269;-87
2023/03/20 02:32:46;;;;;;;27.20;15.63;;;9.40;99.90;;;;;;4998788;28;20228;-86
2023/03/20 02:35:44;;;;;;;28.67;15.57;;;9.30;99.90;;;;;;4955984;28;20802;-87
2023/03/20 02:38:30;;;;;;;25.93;14.97;;;9.30;99.90;;;;;;5000404;28;20371;-86
2023/03/20 02:41:21;;;;;;;32.17;16.33;;;9.30;99.90;;;;;;5011522;28;20245;-85
2023/03/20 02:44:03;;;;;;;27.97;15.53;;;9.30;99.90;;;;;;4991505;28;20203;-87
2023/03/20 02:47:10;;;;;;;26.73;15.13;;;9.40;99.90;;;;;;4985312;28;20660;-87
2023/03/20 02:49:44;;;;;;;29.70;15.27;;;9.30;99.90;;;;;;4997699;28;20228;-87
2023/03/20 02:52:33;;;;;;;25.03;14.37;;;9.20;99.90;;;;;;5000553;28;20298;-87
2023/03/20 02:55:24;;;;;;;28.47;15.33;;;9.30;99.90;;;;;;4996737;28;20208;-89
2023/03/20 02:58:02;;;;;;;25.67;15.30;;;9.30;99.90;;;;;;4995390;28;20235;-88
2023/03/20 03:00:39;;;;;;;27.90;15.10;;;9.30;99.90;;;;;;4995014;28;20384;-86
2023/03/20 03:03:30;;;;;;;26.00;14.87;;;9.30;99.90;;;;;;4998299;28;20211;-86
2023/03/20 03:06:19;;;;;;;26.67;13.77;;;9.30;99.90;;;;;;5004002;28;20234;-85
2023/03/20 03:09:32;;;;;;;25.07;14.13;;;9.20;99.90;;;;;;5005580;28;20223;-87
2023/03/20 03:12:10;;;;;;;23.20;13.37;;;9.20;99.90;;;;;;4945432;29;20604;-81
2023/03/20 03:14:48;;;;;;;23.70;11.97;;;9.20;99.90;;;;;;4948482;29;20202;-87
2023/03/20 03:17:21;;;;;;;21.90;12.33;;;9.30;99.90;;;;;;4983186;28;20223;-86
2023/03/20 03:19:52;;;;;;;22.10;11.80;;;9.20;99.90;;;;;;5003517;28;20212;-85
2023/03/20 03:22:20;;;;;;;19.83;12.07;;;9.30;99.90;;;;;;5020538;28;20215;-87
2023/03/20 03:24:49;;;;;;;20.17;11.30;;;9.20;99.90;;;;;;5007771;28;20223;-86
2023/03/20 03:27:27;;;;;;;19.90;11.07;;;9.20;99.90;;;;;;5010813;28;20642;-87
2023/03/20 03:29:59;;;;;;;22.53;11.07;;;9.20;99.90;;;;;;4994218;28;20645;-88
2023/03/20 03:32:35;;;;;;;15.33;9.97;;;9.20;99.90;;;;;;4992671;28;20259;-87
2023/03/20 03:35:05;;;;;;;13.73;9.30;;;9.20;99.90;;;;;;4982754;28;20700;-87
2023/03/20 03:37:55;;;;;;;18.93;9.20;;;9.20;99.90;;;;;;4988758;28;20234;-87
2023/03/20 03:40:44;;;;;;;17.57;9.63;;;9.10;99.90;;;;;;4993587;28;20288;-89
2023/03/20 03:43:17;;;;;;;15.03;9.03;;;9.20;99.90;;;;;;4984933;28;20700;-88
2023/03/20 03:45:50;;;;;;;18.40;9.47;;;9.20;99.90;;;;;;4995923;28;20259;-88
2023/03/20 03:48:22;;;;;;;16.67;8.23;;;9.20;99.90;;;;;;4987610;28;20227;-88
2023/03/20 03:50:54;;;;;;;13.93;8.70;;;9.20;99.90;;;;;;4983911;28;20262;-88
2023/03/20 03:53:37;;;;;;;13.63;8.03;;;9.10;99.90;;;;;;4990457;28;20236;-87
2023/03/20 03:56:09;;;;;;;15.57;7.77;;;9.10;99.90;;;;;;4992999;28;20268;-85
2023/03/20 03:58:42;;;;;;;13.77;7.80;;;9.10;99.90;;;;;;4984617;28;20248;-87
2023/03/20 04:01:13;;;;;;;12.73;6.90;;;9.00;99.90;;;;;;4988338;28;20724;-86
2023/03/20 04:03:55;;;;;;;11.53;6.93;;;9.00;99.90;;;;;;4987598;28;20228;-88
2023/03/20 04:06:22;;;;;;;12.07;6.80;;;9.00;99.90;;;;;;4991013;28;20232;-85
2023/03/20 04:08:51;;;;;;;15.37;7.17;;;9.00;99.90;;;;;;4986924;28;20219;-86
2023/03/20 04:11:20;;;;;;;20.03;6.70;;;9.00;99.90;;;;;;4995096;28;20255;-86
2023/03/20 04:13:51;;;;;;;12.50;6.60;;;8.90;99.90;;;;;;4983463;28;20212;-87
2023/03/20 04:16:20;;;;;;;11.97;6.27;;;8.90;99.90;;;;;;4994443;28;20704;-86
2023/03/20 04:18:49;;;;;;;14.43;6.73;;;8.90;99.90;;;;;;4987418;28;20230;-89
2023/03/20 04:21:16;;;;;;;12.77;6.17;;;8.90;99.90;;;;;;4991300;28;20200;-86
2023/03/20 04:23:43;;;;;;;15.17;6.33;;;8.90;99.90;;;;;;4993205;28;20200;-87
2023/03/20 04:26:12;;;;;;;12.77;6.33;;;8.90;99.90;;;;;;4991519;28;20586;-86
2023/03/20 04:28:39;;;;;;;13.30;6.37;;;8.80;99.90;;;;;;4991680;28;20208;-87
2023/03/20 04:31:06;;;;;;;11.40;6.57;;;8.80;99.90;;;;;;4994186;28;20266;-88
2023/03/20 04:33:34;;;;;;;13.90;5.63;;;8.80;99.90;;;;;;4984811;28;20228;-85
2023/03/20 04:36:05;;;;;;;11.30;5.97;;;8.80;99.90;;;;;;4991651;28;20219;-87
2023/03/20 04:38:33;;;;;;;16.03;7.30;;;8.70;99.90;;;;;;4986876;28;20602;-87
2023/03/20 04:41:00;;;;;;;18.20;7.83;;;8.70;99.90;;;;;;4990547;28;20266;-87
2023/03/20 04:43:28;;;;;;;14.70;7.63;;;8.70;99.90;;;;;;4991209;28;20215;-85
2023/03/20 04:45:55;;;;;;;15.57;7.73;;;8.60;99.90;;;;;;4982295;28;20307;-87
2023/03/20 04:48:22;;;;;;;18.63;8.17;;;8.60;99.90;;;;;;4983842;28;20224;-87
2023/03/20 04:50:49;;;;;;;13.73;6.87;;;8.60;99.90;;;;;;4993803;28;20246;-86
2023/03/20 04:53:17;;;;;;;18.63;6.97;;;8.60;99.90;;;;;;4986021;28;20308;-86
2023/03/20 04:55:49;;;;;;;18.53;8.47;;;8.70;99.90;;;;;;5003897;28;20204;-86
2023/03/20 04:58:16;;;;;;;15.63;8.27;;;8.70;99.90;;;;;;5008044;28;20339;-84
2023/03/20 05:00:44;;;;;;;18.43;7.67;;;8.70;99.90;;;;;;5004087;28;20263;-86
2023/03/20 05:03:11;;;;;;;14.33;8.20;;;8.70;99.90;;;;;;4995083;28;20221;-86
2023/03/20 05:05:38;;;;;;;17.53;8.90;;;8.60;99.90;;;;;;4981410;28;20290;-87
2023/03/20 05:08:05;;;;;;;16.00;8.57;;;8.60;99.90;;;;;;4981511;28;20704;-88
2023/03/20 05:10:33;;;;;;;21.07;8.83;;;8.60;99.90;;;;;;5005442;28;20580;-87
2023/03/20 05:13:00;;;;;;;19.90;8.87;;;8.50;99.90;;;;;;4987550;28;20290;-86
2023/03/20 05:15:26;;;;;;;20.13;8.93;;;8.50;99.90;;;;;;4994045;28;20660;-88
2023/03/20 05:17:53;;;;;;;18.30;8.47;;;8.50;99.90;;;;;;4987418;28;20253;-86
2023/03/20 05:20:20;;;;;;;19.73;9.80;;;8.50;99.90;;;;;;4992178;28;20207;-85
2023/03/20 05:22:50;;;;;;;24.07;10.60;;;8.50;99.90;;;;;;4990033;28;20269;-88
2023/03/20 05:25:18;;;;;;;22.80;11.00;;;8.40;99.90;;;;;;4996292;28;20256;-87
2023/03/20 05:27:45;;;;;;;25.63;10.43;;;8.40;99.90;;;;;;4997628;28;20208;-86
2023/03/20 05:30:13;;;;;;;19.53;10.40;;;8.40;99.90;;;;;;5008753;28;20240;-86
2023/03/20 05:32:42;;;;;;;23.43;10.93;;;8.40;99.90;;;;;;4996199;28;20224;-86
2023/03/20 05:35:10;;;;;;;21.50;11.17;;;8.50;99.90;;;;;;4993199;28;20215;-86
2023/03/20 05:37:38;;;;;;;22.33;10.73;;;8.40;99.90;;;;;;5001326;28;20234;-85
2023/03/20 05:40:06;;;;;;;24.17;12.57;;;8.40;99.90;;;;;;4996886;28;20219;-86
2023/03/20 05:42:32;;;;;;;22.83;12.50;;;8.40;99.90;;;;;;4987224;28;20224;-87
2023/03/20 05:44:59;;;;;;;28.23;13.83;;;8.40;99.90;;;;;;5004901;28;20656;-88
2023/03/20 05:47:26;;;;;;;31.73;14.13;;;8.30;99.90;;;;;;5003196;28;20224;-88
2023/03/20 05:49:53;;;;;;;25.77;14.10;;;8.30;99.90;;;;;;4991045;28;20235;-86
2023/03/20 05:52:22;;;;;;;26.60;14.33;;;8.30;99.90;;;;;;4995341;28;20267;-86
2023/03/20 05:54:49;;;;;;;31.90;14.27;;;8.30;99.90;;;;;;5000503;28;20651;-86
2023/03/20 05:57:16;;;;;;;27.87;15.07;;;8.30;99.90;;;;;;5000658;28;20251;-87
2023/03/20 05:59:43;;;;;;;28.57;14.43;;;8.30;99.90;;;;;;4986889;28;20348;-86
2023/03/20 06:02:10;;;;;;;31.93;15.97;;;8.30;99.90;;;;;;4999361;28;20227;-86
2023/03/20 06:04:45;;;;;;;31.47;15.90;;;8.30;99.90;;;;;;4993702;28;20648;-86
2023/03/20 06:07:12;;;;;;;32.47;15.17;;;8.30;99.90;;;;;;4993029;28;20267;-86
2023/03/20 06:09:39;;;;;;;27.23;15.60;;;8.30;99.90;;;;;;4991592;28;20285;-88
2023/03/20 06:12:06;;;;;;;31.97;15.97;;;8.40;99.90;;;;;;4998406;28;20235;-87
2023/03/20 06:14:33;;;;;;;27.67;15.63;;;8.40;99.90;;;;;;4992493;28;20242;-86
2023/03/20 06:17:00;;;;;;;31.93;16.33;;;8.50;99.90;;;;;;4988807;28;20260;-87
2023/03/20 06:19:27;;;;;;;31.70;15.47;;;8.40;99.90;;;;;;4983706;28;20231;-85
2023/03/20 06:21:54;;;;;;;30.03;15.63;;;8.40;99.90;;;;;;4993837;28;20219;-87
2023/03/20 06:24:21;;;;;;;29.10;15.17;;;8.40;99.90;;;;;;4992676;28;20283;-87
2023/03/20 06:26:48;;;;;;;25.90;15.03;;;8.50;99.90;;;;;;4986300;28;20210;-90
2023/03/20 06:29:14;;;;;;;29.10;15.73;;;8.50;99.90;;;;;;4983905;28;20295;-87
2023/03/20 06:31:41;;;;;;;32.10;15.37;;;8.50;99.90;;;;;;4992056;28;20254;-86
2023/03/20 06:34:09;;;;;;;30.03;15.10;;;8.50;99.90;;;;;;4991171;28;20767;-86
2023/03/20 06:36:36;;;;;;;28.40;14.97;;;8.60;99.90;;;;;;4988015;28;20197;-85
2023/03/20 06:39:03;;;;;;;34.80;16.43;;;8.60;99.90;;;;;;4987035;28;20270;-86
2023/03/20 06:41:30;;;;;;;32.73;16.30;;;8.50;99.90;;;;;;4994536;28;20203;-89
2023/03/20 06:44:00;;;;;;;29.37;14.83;;;8.50;99.90;;;;;;4982470;28;20676;-87
2023/03/20 06:46:27;;;;;;;29.43;15.90;;;8.40;99.90;;;;;;4993956;28;20203;-87
2023/03/20 06:48:54;;;;;;;30.57;15.27;;;8.50;99.90;;;;;;4988699;28;20279;-87
2023/03/20 06:51:21;;;;;;;27.10;14.53;;;8.60;99.90;;;;;;4986460;28;20205;-87
2023/03/20 06:53:48;;;;;;;27.93;14.37;;;8.50;99.90;;;;;;4994632;28;20228;-86
2023/03/20 06:56:15;;;;;;;31.37;14.67;;;8.50;99.90;;;;;;5005698;28;20242;-88
2023/03/20 06:58:42;;;;;;;30.03;14.53;;;8.50;99.90;;;;;;4986901;28;20262;-87
2023/03/20 07:01:15;;;;;;;26.60;13.77;;;8.60;99.90;;;;;;4983085;28;20303;-86
2023/03/20 07:03:43;;;;;;;29.93;14.90;;;8.60;99.90;;;;;;4987722;28;20222;-87
2023/03/20 07:06:11;;;;;;;23.90;13.23;;;8.60;99.90;;;;;;4987389;28;20312;-88
2023/03/20 07:08:38;;;;;;;23.33;13.43;;;8.60;99.90;;;;;;4983152;28;20246;-87
2023/03/20 07:11:05;;;;;;;30.30;14.77;;;8.70;99.90;;;;;;5002871;28;20677;-87
2023/03/20 07:13:32;;;;;;;25.67;13.40;;;8.70;99.90;;;;;;4991366;28;20291;-87
2023/03/20 07:16:02;;;;;;;23.63;12.43;;;8.70;99.90;;;;;;4985576;28;20212;-90
2023/03/20 07:18:31;;;;;;;25.50;13.10;;;8.80;99.90;;;;;;4990359;28;20231;-87
2023/03/20 07:21:04;;;;;;;22.27;12.23;;;8.70;99.90;;;;;;4989522;28;20215;-85
2023/03/20 07:23:33;;;;;;;25.77;12.33;;;8.80;99.90;;;;;;4985585;28;20212;-88
2023/03/20 07:26:00;;;;;;;23.17;11.93;;;8.80;99.90;;;;;;4990415;28;20601;-90
2023/03/20 07:28:26;;;;;;;25.63;11.07;;;8.90;99.90;;;;;;4992036;28;20212;-88
2023/03/20 07:30:53;;;;;;;21.90;12.20;;;8.90;99.90;;;;;;4986349;28;20307;-88
2023/03/20 07:33:20;;;;;;;20.13;10.97;;;8.90;99.90;;;;;;4985874;28;20756;-90
2023/03/20 07:35:51;;;;;;;25.37;11.60;;;9.00;99.90;;;;;;4992625;28;20243;-87
2023/03/20 07:38:18;;;;;;;23.67;11.50;;;8.90;99.90;;;;;;4993517;28;20239;-88
2023/03/20 07:40:45;;;;;;;26.47;12.10;;;8.90;99.90;;;;;;4985751;28;20293;-90
2023/03/20 07:43:11;;;;;;;22.63;11.60;;;9.10;99.90;;;;;;4985730;28;20217;-88
2023/03/20 07:45:38;;;;;;;23.70;10.90;;;9.10;99.90;;;;;;4984101;28;20269;-89
2023/03/20 07:48:05;;;;;;;23.80;11.87;;;9.10;99.90;;;;;;4987189;28;20288;-88
2023/03/20 07:50:32;;;;;;;24.43;10.87;;;9.10;99.90;;;;;;4985446;28;20307;-87
2023/03/20 07:52:59;;;;;;;21.07;11.10;;;9.10;99.90;;;;;;4986634;28;20299;-87
2023/03/20 07:55:26;;;;;;;23.07;11.00;;;9.20;99.90;;;;;;4988394;28;20206;-89
2023/03/20 07:57:53;;;;;;;22.27;11.53;;;9.20;99.90;;;;;;4988864;28;20308;-88
2023/03/20 08:00:20;;;;;;;22.00;10.77;;;9.20;99.90;;;;;;4984923;28;20216;-87
2023/03/20 08:02:48;;;;;;;22.67;10.77;;;9.20;99.90;;;;;;4990072;28;20333;-90
2023/03/20 08:05:16;;;;;;;21.17;10.47;;;9.10;99.90;;;;;;4970950;28;20264;-89
2023/03/20 08:07:44;;;;;;;24.83;12.47;;;9.20;99.90;;;;;;4987924;28;20646;-90
2023/03/20 08:10:12;;;;;;;23.47;12.20;;;9.20;99.90;;;;;;4990347;28;20205;-88
2023/03/20 08:12:39;;;;;;;21.80;11.50;;;9.20;99.90;;;;;;4987478;28;20209;-89
2023/03/20 08:15:06;;;;;;;20.00;10.83;;;9.10;99.90;;;;;;4984064;28;20223;-87
2023/03/20 08:17:33;;;;;;;21.30;11.57;;;9.00;99.90;;;;;;4986284;28;20287;-89
2023/03/20 08:20:00;;;;;;;21.03;11.70;;;9.00;99.90;;;;;;4981116;28;20234;-87
2023/03/20 08:22:27;;;;;;;27.50;11.87;;;9.10;99.90;;;;;;4987976;28;20212;-87
2023/03/20 08:24:53;;;;;;;20.37;11.30;;;9.10;99.90;;;;;;4985837;28;20211;-86
2023/03/20 08:27:20;;;;;;;22.50;11.60;;;9.20;99.90;;;;;;4992936;28;20556;-87
2023/03/20 08:29:47;;;;;;;21.17;11.63;;;9.20;99.90;;;;;;4987141;28;20297;-88
2023/03/20 08:32:13;;;;;;;23.83;11.60;;;9.30;99.90;;;;;;4996451;28;20213;-88
2023/03/20 08:34:40;;;;;;;22.43;11.23;;;9.30;99.90;;;;;;4994586;28;20247;-87
2023/03/20 08:37:07;;;;;;;19.90;10.27;;;9.40;99.90;;;;;;4995106;28;20270;-88
2023/03/20 08:39:34;;;;;;;20.60;11.03;;;9.30;99.90;;;;;;4992931;28;20245;-87
2023/03/20 08:42:01;;;;;;;22.50;11.60;;;9.30;99.90;;;;;;4997829;28;20211;-87
2023/03/20 08:44:28;;;;;;;20.50;10.40;;;9.40;99.90;;;;;;4999245;28;20244;-85
2023/03/20 08:46:55;;;;;;;27.10;10.80;;;9.40;99.90;;;;;;4997501;28;20304;-86
2023/03/20 08:49:22;;;;;;;21.80;10.47;;;9.50;99.90;;;;;;4992004;28;20222;-89
2023/03/20 08:51:49;;;;;;;18.87;11.07;;;9.40;99.90;;;;;;4991607;28;20272;-90
2023/03/20 08:54:17;;;;;;;23.23;10.20;;;9.40;99.90;;;;;;4989777;28;20252;-87
2023/03/20 08:56:45;;;;;;;19.40;10.43;;;9.40;99.90;;;;;;4995636;28;20261;-89
2023/03/20 08:59:12;;;;;;;19.00;9.83;;;9.50;99.90;;;;;;4987618;28;20221;-87
2023/03/20 09:01:39;;;;;;;23.73;10.50;;;9.50;99.90;;;;;;4990991;28;20202;-88
2023/03/20 09:04:16;;;;;;;20.63;10.13;;;9.50;99.90;;;;;;4985268;28;20720;-88
2023/03/20 09:06:44;;;;;;;19.57;10.00;;;9.60;99.90;;;;;;4987752;28;20663;-88
2023/03/20 09:09:14;;;;;;;22.63;10.17;;;9.70;99.90;;;;;;4989374;28;20643;-88
2023/03/20 09:11:45;;;;;;;16.60;8.83;;;9.70;99.90;;;;;;4991697;28;20207;-89
2023/03/20 09:14:13;;;;;;;17.80;10.13;;;9.70;99.90;;;;;;4990875;28;20208;-91
2023/03/20 09:16:40;;;;;;;17.30;9.47;;;9.60;99.90;;;;;;4989465;28;20326;-86
2023/03/20 09:19:07;;;;;;;19.30;9.47;;;9.60;99.90;;;;;;4984623;28;20328;-86
2023/03/20 09:21:33;;;;;;;18.33;9.00;;;9.60;99.90;;;;;;4982462;28;20294;-86
2023/03/20 09:24:00;;;;;;;21.27;9.23;;;9.60;99.90;;;;;;4990400;28;20210;-88
2023/03/20 09:26:27;;;;;;;19.37;8.97;;;9.70;99.90;;;;;;4991177;28;20245;-87
2023/03/20 09:28:54;;;;;;;18.50;9.77;;;9.80;99.90;;;;;;4990748;28;20294;-88
2023/03/20 09:31:22;;;;;;;18.87;8.47;;;9.90;99.90;;;;;;4991454;28;20224;-87
2023/03/20 09:33:48;;;;;;;14.40;8.13;;;10.00;99.90;;;;;;4974503;28;20224;-89
2023/03/20 09:36:16;;;;;;;17.93;8.23;;;10.10;99.90;;;;;;4993492;28;20275;-91
2023/03/20 09:38:43;;;;;;;16.07;8.03;;;10.20;99.90;;;;;;4997766;28;20215;-88
2023/03/20 09:41:21;;;;;;;14.17;8.03;;;10.20;99.90;;;;;;4992731;28;20286;-85
2023/03/20 09:44:04;;;;;;;14.93;8.07;;;10.30;99.90;;;;;;4984162;28;20532;-87
2023/03/20 09:46:57;;;;;;;14.30;7.67;;;10.40;99.90;;;;;;4982540;28;20294;-85
2023/03/20 09:49:46;;;;;;;15.10;7.23;;;10.50;99.90;;;;;;4985686;28;20210;-88
2023/03/20 09:52:30;;;;;;;12.90;6.60;;;10.70;99.90;;;;;;4983637;28;20294;-86
2023/03/20 09:55:06;;;;;;;13.47;6.30;;;10.80;99.90;;;;;;4993638;28;20238;-87
2023/03/20 09:58:01;;;;;;;15.77;6.37;;;10.80;99.90;;;;;;4984184;28;20211;-87
2023/03/20 10:00:31;;;;;;;14.50;6.27;;;10.80;99.90;;;;;;4990224;28;20290;-86
2023/03/20 10:03:07;;;;;;;11.83;5.50;;;10.70;99.90;;;;;;4985132;28;20672;-86
2023/03/20 10:05:43;;;;;;;11.27;6.23;;;10.70;99.90;;;;;;4981367;28;20294;-87
2023/03/20 10:08:19;;;;;;;12.97;6.30;;;10.60;99.90;;;;;;4984025;28;20277;-86
2023/03/20 10:10:55;;;;;;;13.27;5.67;;;10.70;99.90;;;;;;4993000;28;20207;-86
2023/03/20 10:13:40;;;;;;;9.17;5.10;;;10.70;99.90;;;;;;4992589;28;20214;-87
2023/03/20 10:16:26;;;;;;;10.93;5.93;;;10.70;99.90;;;;;;4984400;28;20204;-87
2023/03/20 10:19:27;;;;;;;10.33;5.50;;;10.70;99.90;;;;;;4981624;28;20703;-86
2023/03/20 10:22:10;;;;;;;12.53;4.87;;;10.70;99.90;;;;;;4990177;28;20350;-86
2023/03/20 10:25:06;;;;;;;11.77;5.20;;;10.70;99.90;;;;;;4986294;28;20679;-87
2023/03/20 10:27:45;;;;;;;9.93;4.60;;;10.90;99.90;;;;;;4989056;28;20624;-87
2023/03/20 10:30:36;;;;;;;11.17;4.93;;;10.90;99.90;;;;;;4989577;28;20242;-87
2023/03/20 10:33:26;;;;;;;8.63;4.50;;;11.00;99.90;;;;;;4981752;28;20242;-86
2023/03/20 10:36:13;;;;;;;7.83;4.20;;;10.90;99.90;;;;;;4992549;28;20215;-86
2023/03/20 10:38:40;;;;;;;10.53;4.77;;;10.70;99.90;;;;;;4992345;28;20226;-85
2023/03/20 10:41:16;;;;;;;9.43;4.30;;;10.60;99.90;;;;;;4984866;28;20294;-86
2023/03/20 10:43:46;;;;;;;9.47;4.87;;;10.60;99.90;;;;;;4985680;28;20219;-83
2023/03/20 10:46:15;;;;;;;7.53;4.47;;;10.60;99.90;;;;;;4983182;28;20263;-83
2023/03/20 10:48:56;;;;;;;8.37;4.43;;;10.60;99.90;;;;;;4987746;28;20218;-82
2023/03/20 10:51:47;;;;;;;9.10;4.60;;;10.70;99.90;;;;;;4989181;28;20318;-84
2023/03/20 10:54:29;;;;;;;9.90;4.27;;;10.70;99.90;;;;;;4973207;28;20219;-80
2023/03/20 10:56:59;;;;;;;9.47;4.07;;;10.70;99.90;;;;;;4973253;28;20199;-82
2023/03/20 10:59:53;;;;;;;8.93;4.60;;;10.90;99.90;;;;;;4980961;28;20231;-82
2023/03/20 11:02:22;;;;;;;6.27;3.77;;;10.80;99.90;;;;;;4980832;28;20651;-82
2023/03/20 11:04:49;;;;;;;11.50;4.10;;;10.90;99.90;;;;;;4983909;28;20211;-81
2023/03/20 11:07:26;;;;;;;8.43;4.40;;;11.00;99.90;;;;;;4983720;28;20199;-85
2023/03/20 11:10:06;;;;;;;6.80;4.20;;;11.20;99.90;;;;;;4984030;28;20226;-82
2023/03/20 11:12:35;;;;;;;11.60;3.57;;;11.20;99.90;;;;;;4988264;28;20714;-83
2023/03/20 11:15:20;;;;;;;7.10;3.93;;;11.30;99.90;;;;;;4980895;28;20208;-82
2023/03/20 11:17:51;;;;;;;7.50;3.77;;;11.30;99.90;;;;;;4980913;28;20224;-81
2023/03/20 11:20:18;;;;;;;13.13;4.07;;;11.20;99.90;;;;;;4981284;28;20228;-82
2023/03/20 11:22:47;;;;;;;7.23;3.70;;;11.10;99.90;;;;;;4986207;28;20760;-81
2023/03/20 11:25:29;;;;;;;7.80;3.73;;;11.10;99.90;;;;;;4983033;28;20203;-81
2023/03/20 11:28:17;;;;;;;8.17;4.13;;;11.00;99.90;;;;;;4984121;28;20204;-81
2023/03/20 11:30:44;;;;;;;8.33;3.37;;;11.10;99.90;;;;;;4979886;28;20690;-82
2023/03/20 11:33:30;;;;;;;5.97;3.17;;;11.10;99.90;;;;;;4984046;28;20595;-81
2023/03/20 11:35:58;;;;;;;6.67;3.23;;;11.20;99.90;;;;;;4987752;28;20285;-82
2023/03/20 11:38:25;;;;;;;8.73;3.20;;;11.30;99.90;;;;;;4982059;28;20632;-82
2023/03/20 11:40:52;;;;;;;9.63;3.20;;;11.30;99.90;;;;;;4983653;28;20231;-82
2023/03/20 11:43:21;;;;;;;6.67;3.70;;;11.30;99.90;;;;;;4980536;28;20290;-82
2023/03/20 11:45:54;;;;;;;7.70;4.07;;;11.30;99.90;;;;;;4982324;28;20285;-81
2023/03/20 11:48:45;;;;;;;7.37;3.70;;;11.30;99.90;;;;;;4982272;28;20665;-82
2023/03/20 11:51:20;;;;;;;8.23;3.50;;;11.20;99.90;;;;;;4984010;28;20199;-81
2023/03/20 11:53:47;;;;;;;10.87;3.70;;;11.10;99.90;;;;;;4978923;28;20239;-82
2023/03/20 11:56:22;;;;;;;9.03;3.70;;;11.10;99.90;;;;;;4985029;28;20204;-81
2023/03/20 11:59:13;;;;;;;11.27;4.20;;;11.20;99.90;;;;;;4977702;28;20747;-81
2023/03/20 12:01:47;;;;;;;8.67;4.10;;;11.30;99.90;;;;;;4977862;28;20203;-81
2023/03/20 12:04:24;;;;;;;8.23;4.10;;;11.40;99.90;;;;;;4979946;28;20278;-81
2023/03/20 12:06:57;;;;;;;9.10;4.03;;;11.50;99.90;;;;;;4980055;28;20206;-81
2023/03/20 12:09:47;;;;;;;8.27;3.60;;;11.60;99.90;;;;;;4983494;28;20529;-82
2023/03/20 12:12:35;;;;;;;8.10;3.67;;;11.60;99.90;;;;;;4991577;28;20601;-82
2023/03/20 12:15:11;;;;;;;9.37;4.40;;;11.50;99.90;;;;;;4980326;28;20758;-82
2023/03/20 12:17:44;;;;;;;8.27;4.30;;;11.50;99.90;;;;;;4981983;28;20218;-81
2023/03/20 12:20:17;;;;;;;6.97;4.17;;;11.50;99.90;;;;;;4982960;28;21098;-81
2023/03/20 12:23:00;;;;;;;8.63;4.47;;;11.40;99.90;;;;;;4984114;28;20214;-80
2023/03/20 12:25:43;;;;;;;11.37;4.97;;;11.20;99.90;;;;;;4980635;28;20208;-82
2023/03/20 12:28:17;;;;;;;9.73;5.33;;;11.10;99.90;;;;;;4985358;28;20249;-79
2023/03/20 12:31:22;;;;;;;12.53;5.43;;;11.10;99.90;;;;;;4979721;28;20215;-79
2023/03/20 12:34:09;;;;;;;12.93;6.67;;;11.20;99.90;;;;;;4972476;28;20230;-82
2023/03/20 12:36:45;;;;;;;16.07;6.90;;;11.20;99.90;;;;;;4980177;28;20210;-80
2023/03/20 12:39:22;;;;;;;12.20;5.80;;;11.20;99.90;;;;;;4978512;28;20210;-81
2023/03/20 12:42:17;;;;;;;13.87;6.80;;;11.20;99.90;;;;;;4981050;28;20696;-81
2023/03/20 12:45:10;;;;;;;13.80;5.77;;;10.90;99.90;;;;;;4981643;28;20232;-80
2023/03/20 12:47:55;;;;;;;13.67;6.03;;;10.90;99.90;;;;;;4982206;28;20350;-80
2023/03/20 12:50:34;;;;;;;14.43;6.23;;;10.70;99.90;;;;;;4982617;28;20267;-83
2023/03/20 12:53:29;;;;;;;10.23;5.87;;;10.60;99.90;;;;;;4986634;28;20215;-83
2023/03/20 12:56:14;;;;;;;12.87;7.17;;;10.50;99.90;;;;;;4986246;28;20209;-81
2023/03/20 12:59:08;;;;;;;11.03;6.30;;;10.60;99.90;;;;;;4977629;28;20247;-81
2023/03/20 13:01:47;;;;;;;13.43;6.80;;;10.60;99.90;;;;;;4981633;28;20266;-79
2023/03/20 13:04:23;;;;;;;14.43;6.93;;;10.60;99.90;;;;;;4980203;28;20220;-82
2023/03/20 13:07:00;;;;;;;14.03;6.93;;;10.50;99.90;;;;;;4986343;28;20286;-81
2023/03/20 13:10:02;;;;;;;18.40;7.67;;;10.70;99.90;;;;;;4981543;28;20209;-81
2023/03/20 13:12:40;;;;;;;14.57;7.77;;;10.70;99.90;;;;;;4988710;28;20495;-81